PWSweather.com
Personal Weather Stations
Station Observations
KVAGLENALL
West Henrico, Glen Allen, VA 23060-6503

West HenricoGlen Allen, VA 23060-6503

Lat: 37.6554, Lon: -77.5693

Elevation: 273

Station Type: Davis Vantage Pro II

www.glenallenweather.com

High Low Average
Temperature 66.7°F19.3°C 42.7°F5.9°C 61.0°F16.1°C
Dew Point 61.1°F16.2°C 35.0°F1.7°C 56.1°F13.4°C
Winds 13.0 mph 20.9 kmh Calm Calm 5.0 mph S8.0 kmh S
Wind Gusts 19.2 mph30.9 kmh -- 8.0 mph12.9 kmh
Humidity 94% 71% 84%
Pressure 30.22 in1023.4 mb 29.70 in1005.8 mb -
Precipitation 0.00 in0.0 mm - -
Hour Temp Dew Point Humidity Winds Wind Gusts Pressure Precip Precip Rate Daily Precip Total
12:00 AM 66.7°F19.3°C 61.1°F16.2°C 82% 9.0 mph SSW14.5 kmh SSW 12.1 mph19.5 kmh 29.79 in1008.8 mb 0.00 in0.0 mm 0.00 in0.0 mm 0.00 in0.0 mm
12:15 AM 66.4°F19.1°C 61.1°F16.2°C 83% 9.0 mph S14.5 kmh S 12.1 mph19.5 kmh 29.79 in1008.8 mb 0.00 in0.0 mm 0.00 in0.0 mm 0.00 in0.0 mm
12:30 AM 66.4°F19.1°C 61.1°F16.2°C 83% 5.0 mph SSW8.0 kmh SSW 13.1 mph21.1 kmh 29.77 in1008.1 mb 0.00 in0.0 mm 0.00 in0.0 mm 0.00 in0.0 mm
12:45 AM 66.3°F19.1°C 61.0°F16.1°C 83% 13.0 mph SSW20.9 kmh SSW 13.1 mph21.1 kmh 29.77 in1008.1 mb 0.00 in0.0 mm 0.00 in0.0 mm 0.00 in0.0 mm
01:00 AM 65.9°F18.8°C 61.0°F16.1°C 84% 4.0 mph SW6.4 kmh SW 9.1 mph14.6 kmh 29.77 in1008.1 mb 0.00 in0.0 mm 0.00 in0.0 mm 0.00 in0.0 mm
01:15 AM 65.5°F18.6°C 60.9°F16.1°C 85% 7.0 mph S11.3 kmh S 10.1 mph16.3 kmh 29.76 in1007.8 mb 0.00 in0.0 mm 0.00 in0.0 mm 0.00 in0.0 mm
01:30 AM 65.4°F18.6°C 60.8°F16.0°C 85% 6.0 mph SW9.7 kmh SW 10.1 mph16.3 kmh 29.77 in1008.1 mb 0.00 in0.0 mm 0.00 in0.0 mm 0.00 in0.0 mm
01:45 AM 65.5°F18.6°C 60.6°F15.9°C 84% 10.0 mph SSW16.1 kmh SSW 10.1 mph16.3 kmh 29.77 in1008.1 mb 0.00 in0.0 mm 0.00 in0.0 mm 0.00 in0.0 mm
02:00 AM 65.6°F18.7°C 60.7°F15.9°C 84% 12.0 mph S19.3 kmh S 12.1 mph19.5 kmh 29.76 in1007.8 mb 0.00 in0.0 mm 0.00 in0.0 mm 0.00 in0.0 mm
02:15 AM 66.0°F18.9°C 60.7°F15.9°C 83% 7.0 mph SW11.3 kmh SW 10.1 mph16.3 kmh 29.76 in1007.8 mb 0.00 in0.0 mm 0.00 in0.0 mm 0.00 in0.0 mm
02:30 AM 66.0°F18.9°C 60.7°F15.9°C 83% 8.0 mph SW12.9 kmh SW 11.1 mph17.9 kmh 29.76 in1007.8 mb 0.00 in0.0 mm 0.00 in0.0 mm 0.00 in0.0 mm
02:45 AM 66.1°F18.9°C 60.8°F16.0°C 83% 4.0 mph WSW6.4 kmh WSW 11.1 mph17.9 kmh 29.75 in1007.5 mb 0.00 in0.0 mm 0.00 in0.0 mm 0.00 in0.0 mm
03:00 AM 66.2°F19.0°C 60.6°F15.9°C 82% 7.0 mph SSW11.3 kmh SSW 13.1 mph21.1 kmh 29.75 in1007.5 mb 0.00 in0.0 mm 0.00 in0.0 mm 0.00 in0.0 mm
03:15 AM 66.5°F19.2°C 60.5°F15.8°C 81% 5.0 mph SW8.0 kmh SW 11.1 mph17.9 kmh 29.75 in1007.5 mb 0.00 in0.0 mm 0.00 in0.0 mm 0.00 in0.0 mm
03:30 AM 66.6°F19.2°C 60.6°F15.9°C 81% 12.0 mph SW19.3 kmh SW 13.1 mph21.1 kmh 29.73 in1006.8 mb 0.00 in0.0 mm 0.00 in0.0 mm 0.00 in0.0 mm
03:45 AM 66.6°F19.2°C 60.6°F15.9°C 81% 6.0 mph SW9.7 kmh SW 14.1 mph22.7 kmh 29.72 in1006.4 mb 0.00 in0.0 mm 0.00 in0.0 mm 0.00 in0.0 mm
04:00 AM 66.5°F19.2°C 60.2°F15.7°C 80% 7.0 mph SW11.3 kmh SW 14.1 mph22.7 kmh 29.72 in1006.4 mb 0.00 in0.0 mm 0.00 in0.0 mm 0.00 in0.0 mm
04:15 AM 66.5°F19.2°C 60.2°F15.7°C 80% 5.0 mph SW8.0 kmh SW 11.1 mph17.9 kmh 29.72 in1006.4 mb 0.00 in0.0 mm 0.00 in0.0 mm 0.00 in0.0 mm
04:30 AM 66.4°F19.1°C 60.1°F15.6°C 80% 12.0 mph SSW19.3 kmh SSW 18.2 mph29.3 kmh 29.71 in1006.1 mb 0.00 in0.0 mm 0.00 in0.0 mm 0.00 in0.0 mm
04:45 AM 65.7°F18.7°C 59.7°F15.4°C 81% 5.0 mph SW8.0 kmh SW 13.1 mph21.1 kmh 29.71 in1006.1 mb 0.00 in0.0 mm 0.00 in0.0 mm 0.00 in0.0 mm
05:00 AM 65.2°F18.4°C 59.9°F15.5°C 83% 11.0 mph SW17.7 kmh SW 16.2 mph26.1 kmh 29.71 in1006.1 mb 0.00 in0.0 mm 0.00 in0.0 mm 0.00 in0.0 mm
05:15 AM 65.0°F18.3°C 59.7°F15.4°C 83% 8.0 mph S12.9 kmh S 13.1 mph21.1 kmh 29.70 in1005.8 mb 0.00 in0.0 mm 0.00 in0.0 mm 0.00 in0.0 mm
05:30 AM 64.7°F18.2°C 59.5°F15.3°C 83% 8.0 mph SW12.9 kmh SW 15.1 mph24.3 kmh 29.70 in1005.8 mb 0.00 in0.0 mm 0.00 in0.0 mm 0.00 in0.0 mm
05:45 AM 64.5°F18.1°C 59.6°F15.3°C 84% 3.0 mph S4.8 kmh S 10.1 mph16.3 kmh 29.70 in1005.8 mb 0.00 in0.0 mm 0.00 in0.0 mm 0.00 in0.0 mm
06:00 AM 64.4°F18.0°C 59.5°F15.3°C 84% 5.0 mph SW8.0 kmh SW 9.1 mph14.6 kmh 29.71 in1006.1 mb 0.00 in0.0 mm 0.00 in0.0 mm 0.00 in0.0 mm
06:15 AM 64.2°F17.9°C 59.3°F15.2°C 84% 4.0 mph WSW6.4 kmh WSW 11.1 mph17.9 kmh 29.70 in1005.8 mb 0.00 in0.0 mm 0.00 in0.0 mm 0.00 in0.0 mm
06:30 AM 64.1°F17.8°C 59.2°F15.1°C 84% 5.0 mph SW8.0 kmh SW 12.1 mph19.5 kmh 29.71 in1006.1 mb 0.00 in0.0 mm 0.00 in0.0 mm 0.00 in0.0 mm
06:45 AM 64.0°F17.8°C 59.1°F15.1°C 84% 5.0 mph SW8.0 kmh SW 10.1 mph16.3 kmh 29.72 in1006.4 mb 0.00 in0.0 mm 0.00 in0.0 mm 0.00 in0.0 mm
07:00 AM 64.1°F17.8°C 59.2°F15.1°C 84% 10.0 mph SW16.1 kmh SW 12.1 mph19.5 kmh 29.72 in1006.4 mb 0.00 in0.0 mm 0.00 in0.0 mm 0.00 in0.0 mm
07:15 AM 64.2°F17.9°C 59.3°F15.2°C 84% 9.0 mph SSW14.5 kmh SSW 9.1 mph14.6 kmh 29.73 in1006.8 mb 0.00 in0.0 mm 0.00 in0.0 mm 0.00 in0.0 mm
07:30 AM 64.2°F17.9°C 59.3°F15.2°C 84% 8.0 mph SSW12.9 kmh SSW 10.1 mph16.3 kmh 29.73 in1006.8 mb 0.00 in0.0 mm 0.00 in0.0 mm 0.00 in0.0 mm
07:45 AM 64.6°F18.1°C 59.7°F15.4°C 84% 6.0 mph N9.7 kmh N 7.1 mph11.4 kmh 29.76 in1007.8 mb 0.00 in0.0 mm 0.00 in0.0 mm 0.00 in0.0 mm
08:00 AM 64.5°F18.1°C 59.6°F15.3°C 84% 1.0 mph N1.6 kmh N 1.0 mph1.6 kmh 29.78 in1008.5 mb 0.00 in0.0 mm 0.00 in0.0 mm 0.00 in0.0 mm
08:15 AM 64.4°F18.0°C 59.5°F15.3°C 84% 1.0 mph NW1.6 kmh NW 1.0 mph1.6 kmh 29.78 in1008.5 mb 0.00 in0.0 mm 0.00 in0.0 mm 0.00 in0.0 mm
08:30 AM 64.3°F17.9°C 59.7°F15.4°C 85% Calm Calm 1.0 mph1.6 kmh 29.78 in1008.5 mb 0.00 in0.0 mm 0.00 in0.0 mm 0.00 in0.0 mm
08:45 AM 63.7°F17.6°C 59.5°F15.3°C 86% Calm Calm 1.0 mph1.6 kmh 29.78 in1008.5 mb 0.00 in0.0 mm 0.00 in0.0 mm 0.00 in0.0 mm
09:00 AM 63.7°F17.6°C 59.5°F15.3°C 86% Calm Calm 1.0 mph1.6 kmh 29.78 in1008.5 mb 0.00 in0.0 mm 0.00 in0.0 mm 0.00 in0.0 mm
09:15 AM 63.7°F17.6°C 59.5°F15.3°C 86% Calm Calm -- 29.78 in1008.5 mb 0.00 in0.0 mm 0.00 in0.0 mm 0.00 in0.0 mm
09:30 AM 63.5°F17.5°C 59.6°F15.3°C 87% Calm Calm -- 29.78 in1008.5 mb 0.00 in0.0 mm 0.00 in0.0 mm 0.00 in0.0 mm
09:45 AM 63.4°F17.4°C 59.5°F15.3°C 87% 1.0 mph S1.6 kmh S 2.0 mph3.2 kmh 29.78 in1008.5 mb 0.00 in0.0 mm 0.00 in0.0 mm 0.00 in0.0 mm
10:00 AM 63.9°F17.7°C 60.0°F15.6°C 87% 1.0 mph S1.6 kmh S 2.0 mph3.2 kmh 29.79 in1008.8 mb 0.00 in0.0 mm 0.00 in0.0 mm 0.00 in0.0 mm
10:15 AM 64.1°F17.8°C 59.9°F15.5°C 86% Calm Calm 1.0 mph1.6 kmh 29.78 in1008.5 mb 0.00 in0.0 mm 0.00 in0.0 mm 0.00 in0.0 mm
10:30 AM 64.1°F17.8°C 59.9°F15.5°C 86% 1.0 mph S1.6 kmh S 1.0 mph1.6 kmh 29.78 in1008.5 mb 0.00 in0.0 mm 0.00 in0.0 mm 0.00 in0.0 mm
10:45 AM 64.4°F18.0°C 60.5°F15.8°C 87% 1.0 mph S1.6 kmh S 2.0 mph3.2 kmh 29.79 in1008.8 mb 0.00 in0.0 mm 0.00 in0.0 mm 0.00 in0.0 mm
11:00 AM 64.8°F18.2°C 60.5°F15.8°C 86% 1.0 mph S1.6 kmh S 3.0 mph4.8 kmh 29.78 in1008.5 mb 0.00 in0.0 mm 0.00 in0.0 mm 0.00 in0.0 mm
11:15 AM 65.2°F18.4°C 60.6°F15.9°C 85% 3.0 mph SSW4.8 kmh SSW 4.0 mph6.4 kmh 29.78 in1008.5 mb 0.00 in0.0 mm 0.00 in0.0 mm 0.00 in0.0 mm
11:30 AM 65.3°F18.5°C 60.7°F15.9°C 85% 4.0 mph SSW6.4 kmh SSW 8.1 mph13.0 kmh 29.77 in1008.1 mb 0.00 in0.0 mm 0.00 in0.0 mm 0.00 in0.0 mm
11:45 AM 65.3°F18.5°C 60.7°F15.9°C 85% 3.0 mph SW4.8 kmh SW 8.1 mph13.0 kmh 29.77 in1008.1 mb 0.00 in0.0 mm 0.00 in0.0 mm 0.00 in0.0 mm
12:00 PM 65.1°F18.4°C 60.8°F16.0°C 86% 7.0 mph SSW11.3 kmh SSW 9.1 mph14.6 kmh 29.76 in1007.8 mb 0.00 in0.0 mm 0.00 in0.0 mm 0.00 in0.0 mm
12:15 PM 64.9°F18.3°C 60.6°F15.9°C 86% 4.0 mph SW6.4 kmh SW 8.1 mph13.0 kmh 29.77 in1008.1 mb 0.00 in0.0 mm 0.00 in0.0 mm 0.00 in0.0 mm
12:30 PM 65.0°F18.3°C 60.7°F15.9°C 86% 4.0 mph SW6.4 kmh SW 5.1 mph8.2 kmh 29.76 in1007.8 mb 0.00 in0.0 mm 0.00 in0.0 mm 0.00 in0.0 mm
12:45 PM 65.5°F18.6°C 60.6°F15.9°C 84% 3.0 mph SW4.8 kmh SW 8.1 mph13.0 kmh 29.76 in1007.8 mb 0.00 in0.0 mm 0.00 in0.0 mm 0.00 in0.0 mm
01:00 PM 65.5°F18.6°C 59.9°F15.5°C 82% 1.0 mph W1.6 kmh W 9.1 mph14.6 kmh 29.77 in1008.1 mb 0.00 in0.0 mm 0.00 in0.0 mm 0.00 in0.0 mm
01:15 PM 65.3°F18.5°C 59.4°F15.2°C 81% 4.0 mph W6.4 kmh W 10.1 mph16.3 kmh 29.77 in1008.1 mb 0.00 in0.0 mm 0.00 in0.0 mm 0.00 in0.0 mm
01:30 PM 65.1°F18.4°C 59.5°F15.3°C 82% 1.0 mph SW1.6 kmh SW 9.1 mph14.6 kmh 29.77 in1008.1 mb 0.00 in0.0 mm 0.00 in0.0 mm 0.00 in0.0 mm
01:45 PM 65.1°F18.4°C 58.8°F14.9°C 80% 2.0 mph WSW3.2 kmh WSW 3.0 mph4.8 kmh 29.77 in1008.1 mb 0.00 in0.0 mm 0.00 in0.0 mm 0.00 in0.0 mm
02:00 PM 64.9°F18.3°C 58.6°F14.8°C 80% 1.0 mph W1.6 kmh W 13.1 mph21.1 kmh 29.79 in1008.8 mb 0.00 in0.0 mm 0.00 in0.0 mm 0.00 in0.0 mm
02:15 PM 63.7°F17.6°C 59.1°F15.1°C 85% 3.0 mph WSW4.8 kmh WSW 7.1 mph11.4 kmh 29.78 in1008.5 mb 0.01 in0.3 mm 0.04 in1.0 mm 0.01 in0.3 mm
02:30 PM 62.6°F17.0°C 59.3°F15.2°C 89% 2.0 mph WSW3.2 kmh WSW 3.0 mph4.8 kmh 29.79 in1008.8 mb 0.02 in0.5 mm 0.04 in1.0 mm 0.02 in0.5 mm
02:45 PM 62.6°F17.0°C 59.6°F15.3°C 90% 2.0 mph WSW3.2 kmh WSW 4.0 mph6.4 kmh 29.80 in1009.1 mb 0.03 in0.8 mm 0.04 in1.0 mm 0.03 in0.8 mm
03:00 PM 62.5°F16.9°C 59.9°F15.5°C 91% 2.0 mph W3.2 kmh W 5.1 mph8.2 kmh 29.80 in1009.1 mb 0.04 in1.0 mm 0.01 in0.3 mm 0.04 in1.0 mm
03:15 PM 62.2°F16.8°C 59.6°F15.3°C 91% 2.0 mph SW3.2 kmh SW 3.0 mph4.8 kmh 29.81 in1009.5 mb 0.04 in1.0 mm 0.00 in0.0 mm 0.04 in1.0 mm
03:30 PM 61.9°F16.6°C 59.6°F15.3°C 92% Calm Calm 6.1 mph9.8 kmh 29.81 in1009.5 mb 0.02 in0.5 mm 0.00 in0.0 mm 0.04 in1.0 mm
03:45 PM 61.9°F16.6°C 59.6°F15.3°C 92% 2.0 mph SSW3.2 kmh SSW 5.1 mph8.2 kmh 29.83 in1010.2 mb 0.02 in0.5 mm 0.00 in0.0 mm 0.04 in1.0 mm
04:00 PM 61.7°F16.5°C 59.4°F15.2°C 92% 3.0 mph SW4.8 kmh SW 4.0 mph6.4 kmh 29.83 in1010.2 mb 0.00 in0.0 mm 0.00 in0.0 mm 0.04 in1.0 mm
04:15 PM 61.6°F16.4°C 59.6°F15.3°C 93% Calm Calm 1.0 mph1.6 kmh 29.85 in1010.8 mb 0.00 in0.0 mm 0.00 in0.0 mm 0.04 in1.0 mm
04:30 PM 61.5°F16.4°C 59.5°F15.3°C 93% 1.0 mph WNW1.6 kmh WNW 3.0 mph4.8 kmh 29.85 in1010.8 mb 0.00 in0.0 mm 0.00 in0.0 mm 0.04 in1.0 mm
04:45 PM 61.3°F16.3°C 59.3°F15.2°C 93% Calm Calm 2.0 mph3.2 kmh 29.86 in1011.2 mb 0.01 in0.3 mm 0.04 in1.0 mm 0.05 in1.3 mm
05:00 PM 61.1°F16.2°C 59.4°F15.2°C 94% Calm Calm 3.0 mph4.8 kmh 29.88 in1011.9 mb 0.01 in0.3 mm 0.00 in0.0 mm 0.05 in1.3 mm
05:15 PM 60.0°F15.6°C 56.1°F13.4°C 87% 4.0 mph NNW6.4 kmh NNW 10.1 mph16.3 kmh 29.91 in1012.9 mb 0.01 in0.3 mm 0.00 in0.0 mm 0.05 in1.3 mm
05:30 PM 58.2°F14.6°C 54.4°F12.4°C 87% 3.0 mph N4.8 kmh N 9.1 mph14.6 kmh 29.92 in1013.2 mb 0.01 in0.3 mm 0.00 in0.0 mm 0.05 in1.3 mm
05:45 PM 57.4°F14.1°C 53.6°F12.0°C 87% 6.0 mph N9.7 kmh N 8.1 mph13.0 kmh 29.92 in1013.2 mb 0.01 in0.3 mm 0.00 in0.0 mm 0.05 in1.3 mm
06:00 PM 56.9°F13.8°C 53.1°F11.7°C 87% 4.0 mph NE6.4 kmh NE 8.1 mph13.0 kmh 29.93 in1013.5 mb 0.00 in0.0 mm 0.00 in0.0 mm 0.05 in1.3 mm
06:15 PM 56.6°F13.7°C 52.8°F11.6°C 87% 2.0 mph NNE3.2 kmh NNE 4.0 mph6.4 kmh 29.94 in1013.9 mb 0.00 in0.0 mm 0.00 in0.0 mm 0.05 in1.3 mm
06:30 PM 55.9°F13.3°C 52.4°F11.3°C 88% Calm Calm -- 29.95 in1014.2 mb 0.00 in0.0 mm 0.00 in0.0 mm 0.05 in1.3 mm
06:45 PM 55.5°F13.1°C 52.6°F11.4°C 90% Calm Calm -- 29.97 in1014.9 mb 0.00 in0.0 mm 0.00 in0.0 mm 0.05 in1.3 mm
07:00 PM 55.0°F12.8°C 52.4°F11.3°C 91% Calm Calm -- 29.99 in1015.6 mb 0.00 in0.0 mm 0.00 in0.0 mm 0.05 in1.3 mm
07:15 PM 54.8°F12.7°C 52.5°F11.4°C 92% 2.0 mph NNE3.2 kmh NNE 4.0 mph6.4 kmh 30.00 in1015.9 mb 0.00 in0.0 mm 0.00 in0.0 mm 0.05 in1.3 mm
07:30 PM 54.7°F12.6°C 51.2°F10.7°C 88% 4.0 mph NNE6.4 kmh NNE 4.0 mph6.4 kmh 30.00 in1015.9 mb 0.01 in0.3 mm 0.04 in1.0 mm 0.06 in1.5 mm
07:45 PM 54.5°F12.5°C 50.7°F10.4°C 87% 4.0 mph ENE6.4 kmh ENE 5.1 mph8.2 kmh 30.00 in1015.9 mb 0.01 in0.3 mm 0.00 in0.0 mm 0.06 in1.5 mm
08:00 PM 54.4°F12.4°C 49.7°F9.8°C 84% 4.0 mph ENE6.4 kmh ENE 10.1 mph16.3 kmh 30.03 in1016.9 mb 0.01 in0.3 mm 0.00 in0.0 mm 0.06 in1.5 mm
08:15 PM 54.3°F12.4°C 48.6°F9.2°C 81% 13.0 mph NNW20.9 kmh NNW 19.2 mph30.9 kmh 30.04 in1017.3 mb 0.01 in0.3 mm 0.00 in0.0 mm 0.06 in1.5 mm
08:30 PM 53.5°F11.9°C 46.8°F8.2°C 78% 13.0 mph NNE20.9 kmh NNE 19.2 mph30.9 kmh 30.07 in1018.3 mb 0.00 in0.0 mm 0.00 in0.0 mm 0.06 in1.5 mm
08:45 PM 52.5°F11.4°C 44.8°F7.1°C 75% 12.0 mph NNE19.3 kmh NNE 16.2 mph26.1 kmh 30.07 in1018.3 mb 0.00 in0.0 mm 0.00 in0.0 mm 0.06 in1.5 mm
09:00 PM 51.5°F10.8°C 43.8°F6.6°C 75% 12.0 mph N19.3 kmh N 17.2 mph27.7 kmh 30.09 in1019.0 mb 0.00 in0.0 mm 0.00 in0.0 mm 0.06 in1.5 mm
09:15 PM 50.9°F10.5°C 42.9°F6.1°C 74% 11.0 mph N17.7 kmh N 18.2 mph29.3 kmh 30.10 in1019.3 mb 0.00 in0.0 mm 0.00 in0.0 mm 0.06 in1.5 mm
09:30 PM 50.4°F10.2°C 42.4°F5.8°C 74% 13.0 mph N20.9 kmh N 17.2 mph27.7 kmh 30.11 in1019.6 mb 0.00 in0.0 mm 0.00 in0.0 mm 0.06 in1.5 mm
09:45 PM 49.6°F9.8°C 40.9°F4.9°C 72% 9.0 mph N14.5 kmh N 11.1 mph17.9 kmh 30.13 in1020.3 mb 0.00 in0.0 mm 0.00 in0.0 mm 0.06 in1.5 mm
10:00 PM 48.9°F9.4°C 40.3°F4.6°C 72% 11.0 mph N17.7 kmh N 16.2 mph26.1 kmh 30.15 in1021.0 mb 0.01 in0.3 mm 0.01 in0.3 mm 0.07 in1.8 mm
10:15 PM 48.3°F9.1°C 39.4°F4.1°C 71% 12.0 mph NNE19.3 kmh NNE 12.1 mph19.5 kmh 30.16 in1021.3 mb 0.01 in0.3 mm 0.00 in0.0 mm 0.07 in1.8 mm
10:30 PM 47.2°F8.4°C 38.7°F3.7°C 72% 4.0 mph NW6.4 kmh NW 11.1 mph17.9 kmh 30.17 in1021.7 mb 0.01 in0.3 mm 0.00 in0.0 mm 0.07 in1.8 mm
10:45 PM 46.2°F7.9°C 38.4°F3.6°C 74% 7.0 mph NNE11.3 kmh NNE 8.1 mph13.0 kmh 30.19 in1022.4 mb 0.01 in0.3 mm 0.00 in0.0 mm 0.07 in1.8 mm
11:00 PM 45.4°F7.4°C 36.9°F2.7°C 72% 13.0 mph N20.9 kmh N 13.1 mph21.1 kmh 30.19 in1022.4 mb 0.00 in0.0 mm 0.00 in0.0 mm 0.07 in1.8 mm
11:15 PM 44.4°F6.9°C 36.7°F2.6°C 74% Calm Calm 8.1 mph13.0 kmh 30.20 in1022.7 mb 0.00 in0.0 mm 0.00 in0.0 mm 0.07 in1.8 mm
11:30 PM 43.6°F6.4°C 36.2°F2.3°C 75% 8.0 mph N12.9 kmh N 10.1 mph16.3 kmh 30.21 in1023.0 mb 0.00 in0.0 mm 0.00 in0.0 mm 0.07 in1.8 mm
11:45 PM 42.7°F5.9°C 35.0°F1.7°C 74% 9.0 mph NNE14.5 kmh NNE 14.1 mph22.7 kmh 30.22 in1023.4 mb 0.00 in0.0 mm 0.00 in0.0 mm 0.07 in1.8 mm